sensor_id;sensor_type;location;lat;lon;timestamp;P1;durP1;ratioP1;P2;durP2;ratioP2
3643;SDS011;1838;50.742;7.158;2023-01-28T00:01:47;9.00;;;6.60;;
3643;SDS011;1838;50.742;7.158;2023-01-28T00:04:12;9.43;;;5.27;;
3643;SDS011;1838;50.742;7.158;2023-01-28T00:06:39;6.20;;;4.93;;
3643;SDS011;1838;50.742;7.158;2023-01-28T00:09:04;11.00;;;6.03;;
3643;SDS011;1838;50.742;7.158;2023-01-28T00:11:30;8.27;;;5.00;;
3643;SDS011;1838;50.742;7.158;2023-01-28T00:13:56;6.03;;;5.10;;
3643;SDS011;1838;50.742;7.158;2023-01-28T00:16:21;7.13;;;5.03;;
3643;SDS011;1838;50.742;7.158;2023-01-28T00:18:47;7.40;;;4.67;;
3643;SDS011;1838;50.742;7.158;2023-01-28T00:23:52;6.30;;;4.37;;
3643;SDS011;1838;50.742;7.158;2023-01-28T00:26:19;6.60;;;4.40;;
3643;SDS011;1838;50.742;7.158;2023-01-28T00:28:45;8.87;;;4.50;;
3643;SDS011;1838;50.742;7.158;2023-01-28T00:31:14;7.37;;;4.90;;
3643;SDS011;1838;50.742;7.158;2023-01-28T00:33:46;7.73;;;5.10;;
3643;SDS011;1838;50.742;7.158;2023-01-28T00:36:13;9.37;;;4.67;;
3643;SDS011;1838;50.742;7.158;2023-01-28T00:38:40;5.57;;;4.30;;
3643;SDS011;1838;50.742;7.158;2023-01-28T00:41:13;5.60;;;3.57;;
3643;SDS011;1838;50.742;7.158;2023-01-28T00:43:41;9.17;;;4.60;;
3643;SDS011;1838;50.742;7.158;2023-01-28T00:46:08;5.90;;;4.20;;
3643;SDS011;1838;50.742;7.158;2023-01-28T00:48:34;5.90;;;4.57;;
3643;SDS011;1838;50.742;7.158;2023-01-28T00:51:00;7.40;;;4.43;;
3643;SDS011;1838;50.742;7.158;2023-01-28T00:53:26;6.73;;;3.80;;
3643;SDS011;1838;50.742;7.158;2023-01-28T00:55:52;6.50;;;3.97;;
3643;SDS011;1838;50.742;7.158;2023-01-28T00:58:18;7.60;;;4.70;;
3643;SDS011;1838;50.742;7.158;2023-01-28T01:00:44;8.63;;;4.00;;
3643;SDS011;1838;50.742;7.158;2023-01-28T01:03:10;5.47;;;4.30;;
3643;SDS011;1838;50.742;7.158;2023-01-28T01:05:35;7.10;;;4.00;;
3643;SDS011;1838;50.742;7.158;2023-01-28T01:08:01;7.10;;;3.90;;
3643;SDS011;1838;50.742;7.158;2023-01-28T01:10:27;6.77;;;4.07;;
3643;SDS011;1838;50.742;7.158;2023-01-28T01:12:52;6.53;;;3.93;;
3643;SDS011;1838;50.742;7.158;2023-01-28T01:15:18;8.50;;;5.00;;
3643;SDS011;1838;50.742;7.158;2023-01-28T01:17:45;5.53;;;4.10;;
3643;SDS011;1838;50.742;7.158;2023-01-28T01:20:22;8.60;;;4.77;;
3643;SDS011;1838;50.742;7.158;2023-01-28T01:22:50;6.83;;;4.73;;
3643;SDS011;1838;50.742;7.158;2023-01-28T01:25:16;6.07;;;4.50;;
3643;SDS011;1838;50.742;7.158;2023-01-28T01:27:43;7.40;;;4.60;;
3643;SDS011;1838;50.742;7.158;2023-01-28T01:30:12;6.17;;;4.20;;
3643;SDS011;1838;50.742;7.158;2023-01-28T01:32:38;6.40;;;4.17;;
3643;SDS011;1838;50.742;7.158;2023-01-28T01:35:05;7.50;;;5.20;;
3643;SDS011;1838;50.742;7.158;2023-01-28T01:37:32;5.57;;;4.50;;
3643;SDS011;1838;50.742;7.158;2023-01-28T01:39:59;7.67;;;4.57;;
3643;SDS011;1838;50.742;7.158;2023-01-28T01:42:29;5.57;;;4.03;;
3643;SDS011;1838;50.742;7.158;2023-01-28T01:47:38;6.40;;;4.53;;
3643;SDS011;1838;50.742;7.158;2023-01-28T01:50:15;7.20;;;4.33;;
3643;SDS011;1838;50.742;7.158;2023-01-28T01:52:51;8.33;;;5.50;;
3643;SDS011;1838;50.742;7.158;2023-01-28T01:55:22;6.17;;;4.57;;
3643;SDS011;1838;50.742;7.158;2023-01-28T01:57:52;9.30;;;4.93;;
3643;SDS011;1838;50.742;7.158;2023-01-28T02:00:20;8.67;;;4.77;;
3643;SDS011;1838;50.742;7.158;2023-01-28T02:02:46;6.00;;;4.30;;
3643;SDS011;1838;50.742;7.158;2023-01-28T02:05:14;5.60;;;3.97;;
3643;SDS011;1838;50.742;7.158;2023-01-28T02:07:42;10.00;;;4.60;;
3643;SDS011;1838;50.742;7.158;2023-01-28T02:10:10;6.83;;;4.57;;
3643;SDS011;1838;50.742;7.158;2023-01-28T02:12:44;9.67;;;4.87;;
3643;SDS011;1838;50.742;7.158;2023-01-28T02:15:16;8.77;;;4.90;;
3643;SDS011;1838;50.742;7.158;2023-01-28T02:17:45;7.43;;;5.20;;
3643;SDS011;1838;50.742;7.158;2023-01-28T02:23:16;8.30;;;5.63;;
3643;SDS011;1838;50.742;7.158;2023-01-28T02:29:04;9.97;;;5.90;;
3643;SDS011;1838;50.742;7.158;2023-01-28T02:31:43;9.23;;;5.00;;
3643;SDS011;1838;50.742;7.158;2023-01-28T02:40:32;11.30;;;6.53;;
3643;SDS011;1838;50.742;7.158;2023-01-28T02:42:44;13.40;;;7.10;;
3643;SDS011;1838;50.742;7.158;2023-01-28T02:45:23;13.70;;;5.93;;
3643;SDS011;1838;50.742;7.158;2023-01-28T02:48:10;8.73;;;5.80;;
3643;SDS011;1838;50.742;7.158;2023-01-28T02:50:43;9.43;;;5.20;;
3643;SDS011;1838;50.742;7.158;2023-01-28T02:53:36;7.20;;;4.77;;
3643;SDS011;1838;50.742;7.158;2023-01-28T02:58:46;8.47;;;5.53;;
3643;SDS011;1838;50.742;7.158;2023-01-28T03:01:52;10.00;;;5.63;;
3643;SDS011;1838;50.742;7.158;2023-01-28T03:04:45;9.63;;;6.27;;
3643;SDS011;1838;50.742;7.158;2023-01-28T03:07:16;17.43;;;7.37;;
3643;SDS011;1838;50.742;7.158;2023-01-28T03:09:42;11.10;;;6.33;;
3643;SDS011;1838;50.742;7.158;2023-01-28T03:12:13;12.30;;;6.77;;
3643;SDS011;1838;50.742;7.158;2023-01-28T03:15:14;12.40;;;6.63;;
3643;SDS011;1838;50.742;7.158;2023-01-28T03:18:02;10.00;;;6.17;;
3643;SDS011;1838;50.742;7.158;2023-01-28T03:23:52;11.77;;;6.57;;
3643;SDS011;1838;50.742;7.158;2023-01-28T03:26:43;10.93;;;6.13;;
3643;SDS011;1838;50.742;7.158;2023-01-28T03:29:36;13.03;;;6.53;;
3643;SDS011;1838;50.742;7.158;2023-01-28T03:32:22;12.67;;;6.77;;
3643;SDS011;1838;50.742;7.158;2023-01-28T03:35:07;16.13;;;6.90;;
3643;SDS011;1838;50.742;7.158;2023-01-28T03:37:53;14.17;;;6.87;;
3643;SDS011;1838;50.742;7.158;2023-01-28T03:40:19;17.20;;;7.70;;
3643;SDS011;1838;50.742;7.158;2023-01-28T03:42:44;10.50;;;6.90;;
3643;SDS011;1838;50.742;7.158;2023-01-28T03:45:10;14.40;;;6.90;;
3643;SDS011;1838;50.742;7.158;2023-01-28T03:47:36;10.63;;;6.30;;
3643;SDS011;1838;50.742;7.158;2023-01-28T03:50:04;12.50;;;6.70;;
3643;SDS011;1838;50.742;7.158;2023-01-28T03:52:31;15.23;;;7.43;;
3643;SDS011;1838;50.742;7.158;2023-01-28T03:54:57;14.00;;;7.60;;
3643;SDS011;1838;50.742;7.158;2023-01-28T03:57:23;13.87;;;7.27;;
3643;SDS011;1838;50.742;7.158;2023-01-28T03:59:50;15.27;;;7.70;;
3643;SDS011;1838;50.742;7.158;2023-01-28T04:02:17;17.30;;;7.47;;
3643;SDS011;1838;50.742;7.158;2023-01-28T04:04:44;14.63;;;8.20;;
3643;SDS011;1838;50.742;7.158;2023-01-28T04:07:10;12.60;;;7.90;;
3643;SDS011;1838;50.742;7.158;2023-01-28T04:09:38;17.50;;;8.10;;
3643;SDS011;1838;50.742;7.158;2023-01-28T04:12:04;14.67;;;8.90;;
3643;SDS011;1838;50.742;7.158;2023-01-28T04:14:30;14.53;;;7.80;;
3643;SDS011;1838;50.742;7.158;2023-01-28T04:16:56;14.80;;;8.00;;
3643;SDS011;1838;50.742;7.158;2023-01-28T04:19:22;16.87;;;8.80;;
3643;SDS011;1838;50.742;7.158;2023-01-28T04:21:47;15.93;;;8.40;;
3643;SDS011;1838;50.742;7.158;2023-01-28T04:24:14;14.20;;;7.83;;
3643;SDS011;1838;50.742;7.158;2023-01-28T04:26:40;24.77;;;8.63;;
3643;SDS011;1838;50.742;7.158;2023-01-28T04:29:06;16.60;;;9.57;;
3643;SDS011;1838;50.742;7.158;2023-01-28T04:31:32;15.43;;;7.70;;
3643;SDS011;1838;50.742;7.158;2023-01-28T04:33:58;16.30;;;9.37;;
3643;SDS011;1838;50.742;7.158;2023-01-28T04:36:24;13.90;;;8.30;;
3643;SDS011;1838;50.742;7.158;2023-01-28T04:38:50;17.43;;;9.87;;
3643;SDS011;1838;50.742;7.158;2023-01-28T04:41:15;20.10;;;10.10;;
3643;SDS011;1838;50.742;7.158;2023-01-28T04:43:41;21.20;;;10.40;;
3643;SDS011;1838;50.742;7.158;2023-01-28T04:46:06;21.83;;;10.20;;
3643;SDS011;1838;50.742;7.158;2023-01-28T04:48:32;19.10;;;10.30;;
3643;SDS011;1838;50.742;7.158;2023-01-28T04:50:59;17.57;;;10.43;;
3643;SDS011;1838;50.742;7.158;2023-01-28T04:53:25;17.67;;;10.17;;
3643;SDS011;1838;50.742;7.158;2023-01-28T04:55:50;23.73;;;11.40;;
3643;SDS011;1838;50.742;7.158;2023-01-28T04:58:16;22.33;;;11.30;;
3643;SDS011;1838;50.742;7.158;2023-01-28T05:00:41;20.33;;;10.17;;
3643;SDS011;1838;50.742;7.158;2023-01-28T05:03:07;18.63;;;10.23;;
3643;SDS011;1838;50.742;7.158;2023-01-28T05:05:32;21.87;;;10.80;;
3643;SDS011;1838;50.742;7.158;2023-01-28T05:07:58;20.27;;;10.50;;
3643;SDS011;1838;50.742;7.158;2023-01-28T05:10:24;21.20;;;11.13;;
3643;SDS011;1838;50.742;7.158;2023-01-28T05:12:50;24.07;;;10.90;;
3643;SDS011;1838;50.742;7.158;2023-01-28T05:15:17;21.07;;;10.90;;
3643;SDS011;1838;50.742;7.158;2023-01-28T05:17:43;21.43;;;10.53;;
3643;SDS011;1838;50.742;7.158;2023-01-28T05:20:10;23.57;;;10.97;;
3643;SDS011;1838;50.742;7.158;2023-01-28T05:22:37;16.20;;;9.83;;
3643;SDS011;1838;50.742;7.158;2023-01-28T05:25:03;16.97;;;10.20;;
3643;SDS011;1838;50.742;7.158;2023-01-28T05:27:29;18.73;;;9.53;;
3643;SDS011;1838;50.742;7.158;2023-01-28T05:29:56;15.83;;;9.10;;
3643;SDS011;1838;50.742;7.158;2023-01-28T05:32:22;24.70;;;9.97;;
3643;SDS011;1838;50.742;7.158;2023-01-28T05:34:48;18.97;;;9.37;;
3643;SDS011;1838;50.742;7.158;2023-01-28T05:37:13;20.77;;;10.17;;
3643;SDS011;1838;50.742;7.158;2023-01-28T05:39:39;19.53;;;8.83;;
3643;SDS011;1838;50.742;7.158;2023-01-28T05:42:04;20.60;;;10.57;;
3643;SDS011;1838;50.742;7.158;2023-01-28T05:44:30;18.40;;;9.70;;
3643;SDS011;1838;50.742;7.158;2023-01-28T05:46:55;20.30;;;10.47;;
3643;SDS011;1838;50.742;7.158;2023-01-28T05:49:21;27.30;;;11.60;;
3643;SDS011;1838;50.742;7.158;2023-01-28T05:51:46;20.17;;;10.07;;
3643;SDS011;1838;50.742;7.158;2023-01-28T05:54:12;17.93;;;9.60;;
3643;SDS011;1838;50.742;7.158;2023-01-28T05:56:38;17.20;;;9.23;;
3643;SDS011;1838;50.742;7.158;2023-01-28T05:59:05;19.03;;;10.73;;
3643;SDS011;1838;50.742;7.158;2023-01-28T06:01:31;21.00;;;10.40;;
3643;SDS011;1838;50.742;7.158;2023-01-28T06:03:57;16.63;;;9.57;;
3643;SDS011;1838;50.742;7.158;2023-01-28T06:06:23;17.07;;;9.17;;
3643;SDS011;1838;50.742;7.158;2023-01-28T06:08:48;18.77;;;10.00;;
3643;SDS011;1838;50.742;7.158;2023-01-28T06:11:14;21.60;;;10.03;;
3643;SDS011;1838;50.742;7.158;2023-01-28T06:13:39;20.63;;;10.37;;
3643;SDS011;1838;50.742;7.158;2023-01-28T06:16:05;18.27;;;9.83;;
3643;SDS011;1838;50.742;7.158;2023-01-28T06:18:31;20.63;;;9.63;;
3643;SDS011;1838;50.742;7.158;2023-01-28T06:20:57;15.10;;;8.97;;
3643;SDS011;1838;50.742;7.158;2023-01-28T06:23:24;16.57;;;9.63;;
3643;SDS011;1838;50.742;7.158;2023-01-28T06:25:53;20.53;;;10.83;;
3643;SDS011;1838;50.742;7.158;2023-01-28T06:28:19;17.00;;;9.77;;
3643;SDS011;1838;50.742;7.158;2023-01-28T06:30:47;20.93;;;11.07;;
3643;SDS011;1838;50.742;7.158;2023-01-28T06:33:13;19.27;;;9.97;;
3643;SDS011;1838;50.742;7.158;2023-01-28T06:35:39;16.50;;;8.80;;
3643;SDS011;1838;50.742;7.158;2023-01-28T06:38:04;21.87;;;9.80;;
3643;SDS011;1838;50.742;7.158;2023-01-28T06:40:30;16.13;;;8.87;;
3643;SDS011;1838;50.742;7.158;2023-01-28T06:42:55;18.50;;;9.77;;
3643;SDS011;1838;50.742;7.158;2023-01-28T06:45:21;19.40;;;10.80;;
3643;SDS011;1838;50.742;7.158;2023-01-28T06:47:46;15.33;;;8.90;;
3643;SDS011;1838;50.742;7.158;2023-01-28T06:50:12;19.03;;;10.03;;
3643;SDS011;1838;50.742;7.158;2023-01-28T06:52:38;22.17;;;10.50;;
3643;SDS011;1838;50.742;7.158;2023-01-28T06:55:03;12.83;;;7.73;;
3643;SDS011;1838;50.742;7.158;2023-01-28T06:57:29;23.07;;;10.07;;
3643;SDS011;1838;50.742;7.158;2023-01-28T06:59:55;19.23;;;9.60;;
3643;SDS011;1838;50.742;7.158;2023-01-28T07:02:20;19.83;;;10.17;;
3643;SDS011;1838;50.742;7.158;2023-01-28T07:04:46;20.57;;;9.77;;
3643;SDS011;1838;50.742;7.158;2023-01-28T07:07:11;16.23;;;8.50;;
3643;SDS011;1838;50.742;7.158;2023-01-28T07:09:37;17.37;;;8.40;;
3643;SDS011;1838;50.742;7.158;2023-01-28T07:12:02;18.37;;;8.53;;
3643;SDS011;1838;50.742;7.158;2023-01-28T07:14:29;19.00;;;9.90;;
3643;SDS011;1838;50.742;7.158;2023-01-28T07:16:55;18.10;;;9.30;;
3643;SDS011;1838;50.742;7.158;2023-01-28T07:19:20;16.30;;;8.93;;
3643;SDS011;1838;50.742;7.158;2023-01-28T07:21:46;16.70;;;9.10;;
3643;SDS011;1838;50.742;7.158;2023-01-28T07:24:11;15.73;;;8.30;;
3643;SDS011;1838;50.742;7.158;2023-01-28T07:26:37;17.50;;;9.13;;
3643;SDS011;1838;50.742;7.158;2023-01-28T07:29:03;15.47;;;8.73;;
3643;SDS011;1838;50.742;7.158;2023-01-28T07:31:28;18.57;;;9.03;;
3643;SDS011;1838;50.742;7.158;2023-01-28T07:33:54;16.77;;;9.07;;
3643;SDS011;1838;50.742;7.158;2023-01-28T07:36:19;14.50;;;9.30;;
3643;SDS011;1838;50.742;7.158;2023-01-28T07:38:45;20.70;;;9.20;;
3643;SDS011;1838;50.742;7.158;2023-01-28T07:41:10;26.63;;;9.67;;
3643;SDS011;1838;50.742;7.158;2023-01-28T07:43:35;17.40;;;7.97;;
3643;SDS011;1838;50.742;7.158;2023-01-28T07:46:01;15.83;;;8.97;;
3643;SDS011;1838;50.742;7.158;2023-01-28T07:48:27;15.47;;;8.60;;
3643;SDS011;1838;50.742;7.158;2023-01-28T07:50:52;18.17;;;9.03;;
3643;SDS011;1838;50.742;7.158;2023-01-28T07:53:21;17.20;;;8.00;;
3643;SDS011;1838;50.742;7.158;2023-01-28T07:55:47;17.70;;;9.60;;
3643;SDS011;1838;50.742;7.158;2023-01-28T07:58:12;18.33;;;8.57;;
3643;SDS011;1838;50.742;7.158;2023-01-28T08:00:38;21.00;;;8.10;;
3643;SDS011;1838;50.742;7.158;2023-01-28T08:03:05;20.30;;;8.80;;
3643;SDS011;1838;50.742;7.158;2023-01-28T08:08:10;14.23;;;8.00;;
3643;SDS011;1838;50.742;7.158;2023-01-28T08:10:36;16.50;;;8.30;;
3643;SDS011;1838;50.742;7.158;2023-01-28T08:13:03;20.33;;;9.00;;
3643;SDS011;1838;50.742;7.158;2023-01-28T08:15:29;16.40;;;8.57;;
3643;SDS011;1838;50.742;7.158;2023-01-28T08:17:56;14.40;;;7.90;;
3643;SDS011;1838;50.742;7.158;2023-01-28T08:20:23;14.10;;;7.73;;
3643;SDS011;1838;50.742;7.158;2023-01-28T08:22:49;15.77;;;8.50;;
3643;SDS011;1838;50.742;7.158;2023-01-28T08:25:14;14.70;;;8.17;;
3643;SDS011;1838;50.742;7.158;2023-01-28T08:27:40;16.40;;;8.53;;
3643;SDS011;1838;50.742;7.158;2023-01-28T08:30:06;14.87;;;7.60;;
3643;SDS011;1838;50.742;7.158;2023-01-28T08:32:33;18.50;;;8.47;;
3643;SDS011;1838;50.742;7.158;2023-01-28T08:34:59;19.60;;;7.90;;
3643;SDS011;1838;50.742;7.158;2023-01-28T08:37:24;16.90;;;8.50;;
3643;SDS011;1838;50.742;7.158;2023-01-28T08:39:50;14.73;;;7.57;;
3643;SDS011;1838;50.742;7.158;2023-01-28T08:42:15;17.30;;;8.30;;
3643;SDS011;1838;50.742;7.158;2023-01-28T08:44:41;16.53;;;8.87;;
3643;SDS011;1838;50.742;7.158;2023-01-28T08:47:06;18.17;;;9.60;;
3643;SDS011;1838;50.742;7.158;2023-01-28T08:49:32;16.90;;;9.10;;
3643;SDS011;1838;50.742;7.158;2023-01-28T08:51:57;16.83;;;9.10;;
3643;SDS011;1838;50.742;7.158;2023-01-28T08:54:23;19.40;;;9.07;;
3643;SDS011;1838;50.742;7.158;2023-01-28T08:56:49;20.10;;;8.60;;
3643;SDS011;1838;50.742;7.158;2023-01-28T08:59:16;17.90;;;9.40;;
3643;SDS011;1838;50.742;7.158;2023-01-28T09:01:41;18.10;;;9.10;;
3643;SDS011;1838;50.742;7.158;2023-01-28T09:04:07;16.17;;;8.50;;
3643;SDS011;1838;50.742;7.158;2023-01-28T09:06:32;22.07;;;8.80;;
3643;SDS011;1838;50.742;7.158;2023-01-28T09:08:58;16.73;;;7.80;;
3643;SDS011;1838;50.742;7.158;2023-01-28T09:11:25;12.40;;;7.47;;
3643;SDS011;1838;50.742;7.158;2023-01-28T09:13:51;18.23;;;9.13;;
3643;SDS011;1838;50.742;7.158;2023-01-28T09:16:16;18.33;;;8.67;;
3643;SDS011;1838;50.742;7.158;2023-01-28T09:18:42;15.40;;;9.20;;
3643;SDS011;1838;50.742;7.158;2023-01-28T09:21:08;17.00;;;8.30;;
3643;SDS011;1838;50.742;7.158;2023-01-28T09:23:34;15.00;;;8.07;;
3643;SDS011;1838;50.742;7.158;2023-01-28T09:26:03;21.73;;;7.20;;
3643;SDS011;1838;50.742;7.158;2023-01-28T09:28:30;17.17;;;9.17;;
3643;SDS011;1838;50.742;7.158;2023-01-28T09:31:03;17.07;;;9.10;;
3643;SDS011;1838;50.742;7.158;2023-01-28T09:33:33;18.90;;;9.20;;
3643;SDS011;1838;50.742;7.158;2023-01-28T09:36:00;13.20;;;7.97;;
3643;SDS011;1838;50.742;7.158;2023-01-28T09:38:28;12.03;;;7.17;;
3643;SDS011;1838;50.742;7.158;2023-01-28T09:40:54;12.77;;;8.80;;
3643;SDS011;1838;50.742;7.158;2023-01-28T09:46:15;15.37;;;8.60;;
3643;SDS011;1838;50.742;7.158;2023-01-28T09:48:43;17.03;;;9.00;;
3643;SDS011;1838;50.742;7.158;2023-01-28T09:51:30;18.93;;;9.03;;
3643;SDS011;1838;50.742;7.158;2023-01-28T09:54:02;16.97;;;8.03;;
3643;SDS011;1838;50.742;7.158;2023-01-28T09:56:35;18.73;;;8.40;;
3643;SDS011;1838;50.742;7.158;2023-01-28T09:59:18;11.80;;;7.00;;
3643;SDS011;1838;50.742;7.158;2023-01-28T10:04:48;14.63;;;8.70;;
3643;SDS011;1838;50.742;7.158;2023-01-28T10:10:00;13.03;;;7.90;;
3643;SDS011;1838;50.742;7.158;2023-01-28T10:12:55;13.60;;;7.30;;
3643;SDS011;1838;50.742;7.158;2023-01-28T10:15:49;12.70;;;6.87;;
3643;SDS011;1838;50.742;7.158;2023-01-28T10:18:21;11.30;;;6.30;;
3643;SDS011;1838;50.742;7.158;2023-01-28T10:20:54;10.20;;;6.60;;
3643;SDS011;1838;50.742;7.158;2023-01-28T10:23:29;11.13;;;7.50;;
3643;SDS011;1838;50.742;7.158;2023-01-28T10:26:31;12.23;;;6.80;;
3643;SDS011;1838;50.742;7.158;2023-01-28T10:29:03;10.40;;;6.80;;
3643;SDS011;1838;50.742;7.158;2023-01-28T10:31:36;11.70;;;7.33;;
3643;SDS011;1838;50.742;7.158;2023-01-28T10:34:08;11.77;;;6.30;;
3643;SDS011;1838;50.742;7.158;2023-01-28T10:36:34;12.57;;;7.97;;
3643;SDS011;1838;50.742;7.158;2023-01-28T10:39:00;9.90;;;7.13;;
3643;SDS011;1838;50.742;7.158;2023-01-28T10:41:26;12.10;;;7.00;;
3643;SDS011;1838;50.742;7.158;2023-01-28T10:43:51;12.90;;;7.40;;
3643;SDS011;1838;50.742;7.158;2023-01-28T10:46:25;14.53;;;8.00;;
3643;SDS011;1838;50.742;7.158;2023-01-28T10:51:38;10.10;;;7.10;;
3643;SDS011;1838;50.742;7.158;2023-01-28T10:54:22;11.07;;;7.70;;
3643;SDS011;1838;50.742;7.158;2023-01-28T10:56:56;12.83;;;6.97;;
3643;SDS011;1838;50.742;7.158;2023-01-28T10:59:26;14.50;;;6.27;;
3643;SDS011;1838;50.742;7.158;2023-01-28T11:01:55;12.10;;;7.30;;
3643;SDS011;1838;50.742;7.158;2023-01-28T11:04:24;13.30;;;7.27;;
3643;SDS011;1838;50.742;7.158;2023-01-28T11:07:05;10.23;;;6.73;;
3643;SDS011;1838;50.742;7.158;2023-01-28T11:09:43;16.90;;;6.83;;
3643;SDS011;1838;50.742;7.158;2023-01-28T11:14:36;13.13;;;7.03;;
3643;SDS011;1838;50.742;7.158;2023-01-28T11:17:02;14.90;;;7.60;;
3643;SDS011;1838;50.742;7.158;2023-01-28T11:19:30;12.83;;;7.20;;
3643;SDS011;1838;50.742;7.158;2023-01-28T11:21:59;13.70;;;7.43;;
3643;SDS011;1838;50.742;7.158;2023-01-28T11:24:29;12.17;;;6.60;;
3643;SDS011;1838;50.742;7.158;2023-01-28T11:26:57;15.57;;;6.20;;
3643;SDS011;1838;50.742;7.158;2023-01-28T11:29:31;14.27;;;8.40;;
3643;SDS011;1838;50.742;7.158;2023-01-28T11:32:02;15.40;;;8.07;;
3643;SDS011;1838;50.742;7.158;2023-01-28T11:34:29;10.47;;;6.90;;
3643;SDS011;1838;50.742;7.158;2023-01-28T11:37:03;11.00;;;6.53;;
3643;SDS011;1838;50.742;7.158;2023-01-28T11:39:40;13.80;;;7.33;;
3643;SDS011;1838;50.742;7.158;2023-01-28T11:44:36;12.07;;;6.73;;
3643;SDS011;1838;50.742;7.158;2023-01-28T11:50:04;11.30;;;7.03;;
3643;SDS011;1838;50.742;7.158;2023-01-28T11:52:54;20.40;;;6.20;;
3643;SDS011;1838;50.742;7.158;2023-01-28T12:01:43;13.20;;;7.10;;
3643;SDS011;1838;50.742;7.158;2023-01-28T12:04:20;13.87;;;6.97;;
3643;SDS011;1838;50.742;7.158;2023-01-28T12:07:19;15.30;;;8.13;;
3643;SDS011;1838;50.742;7.158;2023-01-28T12:15:40;13.93;;;6.93;;
3643;SDS011;1838;50.742;7.158;2023-01-28T12:18:40;10.43;;;7.07;;
3643;SDS011;1838;50.742;7.158;2023-01-28T12:21:25;12.80;;;7.50;;
3643;SDS011;1838;50.742;7.158;2023-01-28T12:27:04;17.43;;;8.80;;
3643;SDS011;1838;50.742;7.158;2023-01-28T12:33:06;17.63;;;9.70;;
3643;SDS011;1838;50.742;7.158;2023-01-28T12:35:53;15.03;;;7.70;;
3643;SDS011;1838;50.742;7.158;2023-01-28T12:41:41;11.57;;;7.10;;
3643;SDS011;1838;50.742;7.158;2023-01-28T12:44:23;11.70;;;7.20;;
3643;SDS011;1838;50.742;7.158;2023-01-28T12:46:56;12.10;;;7.17;;
3643;SDS011;1838;50.742;7.158;2023-01-28T12:49:44;15.70;;;8.13;;
3643;SDS011;1838;50.742;7.158;2023-01-28T12:52:33;13.77;;;7.50;;
3643;SDS011;1838;50.742;7.158;2023-01-28T12:55:14;13.57;;;7.63;;
3643;SDS011;1838;50.742;7.158;2023-01-28T12:57:44;14.70;;;7.53;;
3643;SDS011;1838;50.742;7.158;2023-01-28T13:05:55;15.73;;;7.40;;
3643;SDS011;1838;50.742;7.158;2023-01-28T13:08:28;15.70;;;8.30;;
3643;SDS011;1838;50.742;7.158;2023-01-28T13:10:54;12.23;;;7.33;;
3643;SDS011;1838;50.742;7.158;2023-01-28T13:13:26;17.80;;;8.80;;
3643;SDS011;1838;50.742;7.158;2023-01-28T13:15:53;12.90;;;7.67;;
3643;SDS011;1838;50.742;7.158;2023-01-28T13:20:53;12.00;;;7.70;;
3643;SDS011;1838;50.742;7.158;2023-01-28T13:24:02;10.47;;;7.30;;
3643;SDS011;1838;50.742;7.158;2023-01-28T13:28:43;11.40;;;8.40;;
3643;SDS011;1838;50.742;7.158;2023-01-28T13:31:13;13.03;;;8.00;;
3643;SDS011;1838;50.742;7.158;2023-01-28T13:39:14;15.07;;;7.23;;
3643;SDS011;1838;50.742;7.158;2023-01-28T13:41:54;12.90;;;7.07;;
3643;SDS011;1838;50.742;7.158;2023-01-28T13:44:53;11.77;;;7.37;;
3643;SDS011;1838;50.742;7.158;2023-01-28T13:47:30;12.30;;;7.00;;
3643;SDS011;1838;50.742;7.158;2023-01-28T13:50:03;9.17;;;6.00;;
3643;SDS011;1838;50.742;7.158;2023-01-28T13:52:32;12.80;;;7.70;;
3643;SDS011;1838;50.742;7.158;2023-01-28T14:06:28;12.20;;;7.10;;
3643;SDS011;1838;50.742;7.158;2023-01-28T14:09:26;10.67;;;7.03;;
3643;SDS011;1838;50.742;7.158;2023-01-28T14:17:49;11.60;;;7.80;;
3643;SDS011;1838;50.742;7.158;2023-01-28T14:20:20;12.30;;;7.33;;
3643;SDS011;1838;50.742;7.158;2023-01-28T14:22:49;10.57;;;7.17;;
3643;SDS011;1838;50.742;7.158;2023-01-28T14:25:21;11.67;;;6.90;;
3643;SDS011;1838;50.742;7.158;2023-01-28T14:27:57;13.57;;;8.10;;
3643;SDS011;1838;50.742;7.158;2023-01-28T14:30:47;14.23;;;7.63;;
3643;SDS011;1838;50.742;7.158;2023-01-28T14:33:17;9.37;;;6.80;;
3643;SDS011;1838;50.742;7.158;2023-01-28T14:35:44;11.97;;;7.80;;
3643;SDS011;1838;50.742;7.158;2023-01-28T14:38:13;11.50;;;7.70;;
3643;SDS011;1838;50.742;7.158;2023-01-28T14:40:41;14.47;;;7.77;;
3643;SDS011;1838;50.742;7.158;2023-01-28T14:43:10;11.10;;;7.37;;
3643;SDS011;1838;50.742;7.158;2023-01-28T14:48:23;15.70;;;6.83;;
3643;SDS011;1838;50.742;7.158;2023-01-28T14:59:53;10.20;;;6.40;;
3643;SDS011;1838;50.742;7.158;2023-01-28T15:02:26;15.43;;;8.13;;
3643;SDS011;1838;50.742;7.158;2023-01-28T15:04:53;11.40;;;6.60;;
3643;SDS011;1838;50.742;7.158;2023-01-28T15:07:23;12.90;;;7.07;;
3643;SDS011;1838;50.742;7.158;2023-01-28T15:10:04;12.00;;;8.30;;
3643;SDS011;1838;50.742;7.158;2023-01-28T15:12:32;11.33;;;7.60;;
3643;SDS011;1838;50.742;7.158;2023-01-28T15:15:07;17.50;;;8.93;;
3643;SDS011;1838;50.742;7.158;2023-01-28T15:17:52;14.93;;;8.40;;
3643;SDS011;1838;50.742;7.158;2023-01-28T15:20:19;14.20;;;7.27;;
3643;SDS011;1838;50.742;7.158;2023-01-28T15:22:47;13.23;;;8.17;;
3643;SDS011;1838;50.742;7.158;2023-01-28T15:25:18;14.53;;;7.87;;
3643;SDS011;1838;50.742;7.158;2023-01-28T15:27:45;13.47;;;8.50;;
3643;SDS011;1838;50.742;7.158;2023-01-28T15:30:22;13.93;;;7.80;;
3643;SDS011;1838;50.742;7.158;2023-01-28T15:35:30;13.67;;;7.57;;
3643;SDS011;1838;50.742;7.158;2023-01-28T15:37:56;17.80;;;7.93;;
3643;SDS011;1838;50.742;7.158;2023-01-28T15:40:23;9.87;;;7.07;;
3643;SDS011;1838;50.742;7.158;2023-01-28T15:42:50;12.37;;;7.43;;
3643;SDS011;1838;50.742;7.158;2023-01-28T15:45:18;12.50;;;7.90;;
3643;SDS011;1838;50.742;7.158;2023-01-28T15:47:46;10.83;;;7.33;;
3643;SDS011;1838;50.742;7.158;2023-01-28T15:50:16;10.23;;;7.03;;
3643;SDS011;1838;50.742;7.158;2023-01-28T15:52:47;15.63;;;9.00;;
3643;SDS011;1838;50.742;7.158;2023-01-28T15:57:53;23.80;;;11.20;;
3643;SDS011;1838;50.742;7.158;2023-01-28T16:00:24;21.00;;;10.13;;
3643;SDS011;1838;50.742;7.158;2023-01-28T16:02:50;13.77;;;8.30;;
3643;SDS011;1838;50.742;7.158;2023-01-28T16:07:51;6.80;;;6.10;;
3643;SDS011;1838;50.742;7.158;2023-01-28T16:10:18;9.20;;;6.87;;
3643;SDS011;1838;50.742;7.158;2023-01-28T16:13:04;12.87;;;6.20;;
3643;SDS011;1838;50.742;7.158;2023-01-28T16:15:36;8.63;;;5.77;;
3643;SDS011;1838;50.742;7.158;2023-01-28T16:18:03;15.27;;;7.80;;
3643;SDS011;1838;50.742;7.158;2023-01-28T16:20:30;45.80;;;16.30;;
3643;SDS011;1838;50.742;7.158;2023-01-28T16:22:57;28.87;;;12.13;;
3643;SDS011;1838;50.742;7.158;2023-01-28T16:25:30;14.17;;;8.63;;
3643;SDS011;1838;50.742;7.158;2023-01-28T16:28:04;16.60;;;8.87;;
3643;SDS011;1838;50.742;7.158;2023-01-28T16:30:40;17.40;;;8.77;;
3643;SDS011;1838;50.742;7.158;2023-01-28T16:33:15;13.40;;;7.80;;
3643;SDS011;1838;50.742;7.158;2023-01-28T16:35:45;14.10;;;7.73;;
3643;SDS011;1838;50.742;7.158;2023-01-28T16:38:11;12.30;;;7.53;;
3643;SDS011;1838;50.742;7.158;2023-01-28T16:40:46;11.93;;;7.83;;
3643;SDS011;1838;50.742;7.158;2023-01-28T16:43:13;13.50;;;7.30;;
3643;SDS011;1838;50.742;7.158;2023-01-28T16:45:42;14.70;;;9.00;;
3643;SDS011;1838;50.742;7.158;2023-01-28T16:48:09;11.50;;;7.47;;
3643;SDS011;1838;50.742;7.158;2023-01-28T16:50:37;11.97;;;6.47;;
3643;SDS011;1838;50.742;7.158;2023-01-28T16:53:04;10.40;;;6.23;;
3643;SDS011;1838;50.742;7.158;2023-01-28T16:55:36;12.73;;;6.70;;
3643;SDS011;1838;50.742;7.158;2023-01-28T16:58:02;12.93;;;7.13;;
3643;SDS011;1838;50.742;7.158;2023-01-28T17:00:28;14.03;;;7.23;;
3643;SDS011;1838;50.742;7.158;2023-01-28T17:02:57;11.10;;;6.47;;
3643;SDS011;1838;50.742;7.158;2023-01-28T17:05:22;15.27;;;7.57;;
3643;SDS011;1838;50.742;7.158;2023-01-28T17:07:49;10.40;;;6.90;;
3643;SDS011;1838;50.742;7.158;2023-01-28T17:10:15;15.27;;;7.70;;
3643;SDS011;1838;50.742;7.158;2023-01-28T17:12:41;15.57;;;7.40;;
3643;SDS011;1838;50.742;7.158;2023-01-28T17:15:08;13.45;;;7.45;;
3643;SDS011;1838;50.742;7.158;2023-01-28T17:17:34;18.83;;;9.63;;
3643;SDS011;1838;50.742;7.158;2023-01-28T17:19:59;19.77;;;9.37;;